Time;durP1;ratioP1;P1;durP2;ratioP2;P2;SDS_P1;SDS_P2;PMS_P1;PMS_P2;Temp;Humidity;BMP_temperature;BMP_pressure;BME280_temperature;BME280_humidity;BME280_pressure;Samples;Min_cycle;Max_cycle;Signal;HPM_P1;HPM_P2
2021/04/10 00:02:27;;;;;;;54.08;34.33;;;5.00;99.90;;;;;;4875778;29;20049;-81
2021/04/10 00:04:53;;;;;;;54.83;34.97;;;5.10;99.90;;;;;;4883338;29;20131;-80
2021/04/10 00:07:20;;;;;;;47.92;34.47;;;5.20;99.90;;;;;;4887212;29;20060;-80
2021/04/10 00:09:46;;;;;;;58.28;37.92;;;5.20;99.90;;;;;;4860622;29;20067;-81
2021/04/10 00:12:14;;;;;;;59.67;39.08;;;5.20;99.90;;;;;;4871776;29;20698;-81
2021/04/10 00:14:41;;;;;;;61.15;39.58;;;5.30;99.90;;;;;;4900733;29;20052;-80
2021/04/10 00:17:08;;;;;;;63.67;38.90;;;5.30;99.90;;;;;;4903569;29;20132;-81
2021/04/10 00:19:35;;;;;;;51.40;33.08;;;5.30;99.90;;;;;;4881470;29;20057;-80
2021/04/10 00:22:02;;;;;;;50.67;32.97;;;5.10;99.90;;;;;;4893414;29;20056;-80
2021/04/10 00:24:28;;;;;;;49.33;31.52;;;5.10;99.90;;;;;;4873629;29;20053;-80
2021/04/10 00:26:55;;;;;;;55.88;33.38;;;5.00;99.90;;;;;;4873649;29;20053;-80
2021/04/10 00:29:21;;;;;;;54.03;34.78;;;4.90;99.90;;;;;;4881202;29;20056;-81
2021/04/10 00:31:48;;;;;;;56.38;36.70;;;5.00;99.90;;;;;;4873791;29;20142;-82
2021/04/10 00:34:14;;;;;;;54.72;34.05;;;5.10;99.90;;;;;;4869707;29;20053;-82
2021/04/10 00:36:41;;;;;;;53.40;35.70;;;5.20;99.90;;;;;;4885536;29;20551;-82
2021/04/10 00:39:07;;;;;;;57.50;36.55;;;5.10;99.90;;;;;;4907090;29;20499;-82
2021/04/10 00:41:33;;;;;;;63.25;37.90;;;5.40;99.90;;;;;;4860333;29;20086;-83
2021/04/10 00:44:00;;;;;;;68.50;39.58;;;5.40;99.90;;;;;;4874100;29;20060;-82
2021/04/10 00:46:26;;;;;;;68.10;40.28;;;5.30;99.90;;;;;;4858533;29;20052;-83
2021/04/10 00:48:53;;;;;;;71.40;40.40;;;5.30;99.90;;;;;;4873859;29;20053;-83
2021/04/10 00:51:20;;;;;;;64.93;39.05;;;5.40;99.90;;;;;;4859746;29;20073;-83
2021/04/10 00:53:47;;;;;;;66.03;41.35;;;5.50;99.90;;;;;;4873561;29;20076;-82
2021/04/10 00:56:13;;;;;;;71.60;41.00;;;5.50;99.90;;;;;;4873859;29;20060;-82
2021/04/10 00:58:40;;;;;;;72.97;41.65;;;5.20;99.90;;;;;;4888612;29;20061;-83
2021/04/10 01:01:09;;;;;;;74.72;42.50;;;5.30;99.90;;;;;;4879070;29;20144;-83
2021/04/10 01:03:40;;;;;;;76.05;42.80;;;5.30;99.90;;;;;;4891411;29;20113;-83
2021/04/10 01:06:06;;;;;;;74.47;43.15;;;5.40;99.90;;;;;;4857659;29;20075;-83
2021/04/10 01:08:34;;;;;;;80.40;44.42;;;5.50;99.90;;;;;;4888510;29;20044;-84
2021/04/10 01:11:27;;;;;;;76.22;44.75;;;5.40;99.90;;;;;;4860816;29;20530;-84
2021/04/10 01:14:04;;;;;;;80.85;44.78;;;5.30;99.90;;;;;;4858475;29;20681;-84
2021/04/10 01:16:46;;;;;;;88.57;48.10;;;5.40;99.90;;;;;;4881175;29;20045;-84
2021/04/10 01:19:44;;;;;;;86.18;46.83;;;5.50;99.90;;;;;;4854971;29;20610;-83
2021/04/10 01:22:30;;;;;;;88.65;46.47;;;5.70;99.90;;;;;;4875337;29;20057;-85
2021/04/10 01:25:05;;;;;;;84.70;46.70;;;5.70;99.90;;;;;;4909375;29;20060;-85
2021/04/10 01:27:34;;;;;;;94.47;49.93;;;5.70;99.90;;;;;;4863387;29;20060;-85
2021/04/10 01:30:12;;;;;;;89.70;46.10;;;5.60;99.90;;;;;;4878515;29;20041;-83
2021/04/10 01:33:04;;;;;;;86.35;45.80;;;5.60;99.90;;;;;;4859441;29;20124;-84
2021/04/10 01:35:35;;;;;;;90.05;47.58;;;5.50;99.90;;;;;;4892413;29;20068;-84
2021/04/10 01:38:04;;;;;;;84.18;47.72;;;5.70;99.90;;;;;;4859013;29;20053;-84
2021/04/10 01:40:34;;;;;;;101.57;49.72;;;5.70;99.90;;;;;;4890453;29;20055;-85
2021/04/10 01:43:03;;;;;;;94.15;50.28;;;5.60;99.90;;;;;;4881922;29;20164;-85
2021/04/10 01:45:30;;;;;;;91.28;51.90;;;5.70;99.90;;;;;;4875243;29;20057;-85
2021/04/10 01:48:08;;;;;;;94.72;51.65;;;5.60;99.90;;;;;;4891515;29;20076;-85
2021/04/10 01:50:38;;;;;;;96.45;52.35;;;5.70;99.90;;;;;;4887651;29;20056;-86
2021/04/10 01:53:07;;;;;;;89.30;51.65;;;5.70;99.90;;;;;;4892533;29;20523;-85
2021/04/10 01:55:35;;;;;;;105.82;54.28;;;5.70;99.90;;;;;;4895292;29;20080;-84
2021/04/10 01:58:04;;;;;;;98.28;55.42;;;5.70;99.90;;;;;;4896340;29;20056;-83
2021/04/10 02:00:35;;;;;;;97.28;52.15;;;5.60;99.90;;;;;;4887615;29;20101;-85
2021/04/10 02:03:05;;;;;;;97.63;49.22;;;5.60;99.90;;;;;;4878579;29;20139;-83
2021/04/10 02:05:35;;;;;;;91.43;48.65;;;5.70;99.90;;;;;;4878466;29;20052;-86
2021/04/10 02:08:13;;;;;;;99.13;51.33;;;5.60;99.90;;;;;;4876488;29;20129;-86
2021/04/10 02:10:42;;;;;;;100.97;52.65;;;5.60;99.90;;;;;;4860652;29;20051;-84
2021/04/10 02:13:36;;;;;;;88.72;48.80;;;5.60;99.90;;;;;;4889859;29;20113;-84
2021/04/10 02:16:03;;;;;;;96.53;50.28;;;5.60;99.90;;;;;;4892811;29;20065;-83
2021/04/10 02:18:35;;;;;;;99.40;52.45;;;5.50;99.90;;;;;;4877022;29;20152;-84
2021/04/10 02:21:09;;;;;;;99.00;52.33;;;5.50;99.90;;;;;;4892610;29;20135;-84
2021/04/10 02:23:42;;;;;;;112.28;56.40;;;5.50;99.90;;;;;;4889175;29;20056;-83
2021/04/10 02:26:18;;;;;;;117.30;55.30;;;5.40;99.90;;;;;;4875600;29;20060;-84
2021/04/10 02:28:47;;;;;;;113.05;56.35;;;5.40;99.90;;;;;;4861806;29;20168;-85
2021/04/10 02:31:40;;;;;;;117.35;57.95;;;5.50;99.90;;;;;;4897082;29;20267;-83
2021/04/10 02:34:16;;;;;;;121.18;57.67;;;5.70;99.90;;;;;;4898596;29;20060;-84
2021/04/10 02:36:46;;;;;;;117.07;58.30;;;5.70;99.90;;;;;;4889659;29;20037;-84
2021/04/10 02:39:15;;;;;;;114.63;58.67;;;5.80;99.90;;;;;;4916657;29;20100;-85
2021/04/10 02:41:45;;;;;;;119.72;59.88;;;5.70;99.90;;;;;;4883028;29;20032;-86
2021/04/10 02:44:14;;;;;;;136.63;64.78;;;5.70;99.90;;;;;;4937973;28;20035;-85
2021/04/10 02:46:48;;;;;;;141.15;63.80;;;5.70;99.90;;;;;;4878626;29;20064;-86
2021/04/10 02:49:26;;;;;;;131.40;60.20;;;5.70;99.90;;;;;;4904176;29;20209;-86
2021/04/10 02:52:01;;;;;;;123.70;60.03;;;5.70;99.90;;;;;;4886782;29;20071;-86
2021/04/10 02:54:34;;;;;;;116.95;58.60;;;5.50;99.90;;;;;;4916515;29;20219;-86
2021/04/10 02:57:17;;;;;;;121.30;58.30;;;5.40;99.90;;;;;;4901093;29;20056;-86
2021/04/10 02:59:48;;;;;;;121.13;60.70;;;5.40;99.90;;;;;;4911399;29;20135;-86
2021/04/10 03:02:16;;;;;;;116.30;58.35;;;5.40;99.90;;;;;;4896284;29;20057;-85
2021/04/10 03:04:46;;;;;;;119.13;59.72;;;5.50;99.90;;;;;;4916202;29;20081;-85
2021/04/10 03:07:14;;;;;;;117.13;60.90;;;5.50;99.90;;;;;;4891935;29;20073;-85
2021/04/10 03:09:45;;;;;;;119.80;60.28;;;5.50;99.90;;;;;;4888890;29;20147;-86
2021/04/10 03:12:14;;;;;;;127.70;61.10;;;5.40;99.90;;;;;;4884458;29;20108;-86
2021/04/10 03:14:42;;;;;;;112.30;57.88;;;5.40;99.90;;;;;;4900458;29;20044;-85
2021/04/10 03:17:12;;;;;;;116.93;59.70;;;5.30;99.90;;;;;;4913434;29;20151;-86
2021/04/10 03:19:41;;;;;;;117.07;58.45;;;5.30;99.90;;;;;;4907206;29;20041;-85
2021/04/10 03:22:09;;;;;;;125.53;63.47;;;5.40;99.90;;;;;;4892073;29;20048;-86
2021/04/10 03:24:36;;;;;;;132.10;61.55;;;5.30;99.90;;;;;;4876817;29;20055;-85
2021/04/10 03:27:04;;;;;;;120.28;59.90;;;5.20;99.90;;;;;;4902175;29;20064;-84
2021/04/10 03:29:35;;;;;;;134.93;63.80;;;5.30;99.90;;;;;;4912338;29;20063;-85
2021/04/10 03:32:08;;;;;;;139.52;66.60;;;5.40;99.90;;;;;;4927716;29;20064;-86
2021/04/10 03:34:38;;;;;;;142.80;67.00;;;5.40;99.90;;;;;;4907038;29;20055;-86
2021/04/10 03:37:07;;;;;;;119.30;62.80;;;5.30;99.90;;;;;;4903656;29;20306;-86
2021/04/10 03:39:37;;;;;;;147.63;67.03;;;5.30;99.90;;;;;;4889267;29;20148;-85
2021/04/10 03:42:09;;;;;;;135.40;64.88;;;5.30;99.90;;;;;;4845230;29;20049;-86
2021/04/10 03:44:35;;;;;;;124.88;65.10;;;5.30;99.90;;;;;;4888773;29;20052;-86
2021/04/10 03:47:18;;;;;;;130.95;63.67;;;5.40;99.90;;;;;;4867458;29;20166;-85
2021/04/10 03:49:45;;;;;;;128.45;65.03;;;5.40;99.90;;;;;;4895020;29;20088;-84
2021/04/10 03:52:12;;;;;;;133.60;64.40;;;5.30;99.90;;;;;;4878416;29;20113;-85
2021/04/10 03:54:38;;;;;;;139.75;65.68;;;5.30;99.90;;;;;;4893307;29;20053;-84
2021/04/10 03:57:05;;;;;;;128.60;64.18;;;5.30;99.90;;;;;;4893141;29;20587;-84
2021/04/10 03:59:32;;;;;;;117.63;60.40;;;5.40;99.90;;;;;;4893666;29;20067;-83
2021/04/10 04:02:12;;;;;;;114.32;59.83;;;5.40;99.90;;;;;;4892753;29;20052;-86
2021/04/10 04:04:39;;;;;;;106.45;59.58;;;5.40;99.90;;;;;;4896750;29;20072;-83
2021/04/10 04:07:06;;;;;;;108.50;57.55;;;5.40;99.90;;;;;;4862569;29;20530;-84
2021/04/10 04:09:32;;;;;;;126.32;62.97;;;5.30;99.90;;;;;;4861974;29;20448;-83
2021/04/10 04:11:59;;;;;;;110.93;58.38;;;5.30;99.90;;;;;;4877789;29;20052;-83
2021/04/10 04:14:25;;;;;;;117.00;60.85;;;5.30;99.90;;;;;;4876702;29;20084;-83
2021/04/10 04:16:52;;;;;;;125.70;64.05;;;5.30;99.90;;;;;;4844846;29;20105;-83
2021/04/10 04:19:18;;;;;;;121.57;62.35;;;5.40;99.90;;;;;;4891246;29;20745;-83
2021/04/10 04:21:45;;;;;;;130.18;65.00;;;5.40;99.90;;;;;;4889651;29;20072;-83
2021/04/10 04:24:11;;;;;;;120.93;61.88;;;5.50;99.90;;;;;;4908020;29;20500;-83
2021/04/10 04:26:38;;;;;;;119.22;61.30;;;5.60;99.90;;;;;;4861233;29;20052;-83
2021/04/10 04:29:04;;;;;;;123.72;62.67;;;5.60;99.90;;;;;;4860568;29;20055;-83
2021/04/10 04:31:31;;;;;;;123.80;64.60;;;5.60;99.90;;;;;;4861125;29;20062;-82
2021/04/10 04:33:57;;;;;;;123.35;63.47;;;5.60;99.90;;;;;;4901397;29;20053;-82
2021/04/10 04:36:24;;;;;;;125.47;61.28;;;5.50;99.90;;;;;;4874284;29;20527;-83
2021/04/10 04:38:50;;;;;;;116.60;62.35;;;5.60;99.90;;;;;;4859233;29;20056;-83
2021/04/10 04:41:17;;;;;;;117.15;61.88;;;5.60;99.90;;;;;;4875724;29;20586;-83
2021/04/10 04:43:43;;;;;;;121.43;60.70;;;5.70;99.90;;;;;;4872031;29;20068;-83
2021/04/10 04:46:11;;;;;;;119.53;60.05;;;5.70;99.90;;;;;;4868377;29;20113;-82
2021/04/10 04:48:38;;;;;;;117.55;59.90;;;5.80;99.90;;;;;;4870356;29;20095;-82
2021/04/10 04:51:05;;;;;;;129.63;63.10;;;5.80;99.90;;;;;;4858843;29;20546;-81
2021/04/10 04:53:32;;;;;;;124.78;62.33;;;5.70;99.90;;;;;;4890236;29;20044;-81
2021/04/10 04:55:59;;;;;;;123.25;62.63;;;5.70;99.90;;;;;;4890261;29;20059;-83
2021/04/10 04:58:25;;;;;;;123.43;62.83;;;5.80;99.90;;;;;;4891120;29;20060;-83
2021/04/10 05:00:52;;;;;;;113.20;60.25;;;5.80;99.90;;;;;;4884046;29;20084;-82
2021/04/10 05:03:18;;;;;;;114.50;58.42;;;5.80;99.90;;;;;;4883909;29;20081;-83
2021/04/10 05:05:45;;;;;;;117.55;60.40;;;5.70;99.90;;;;;;4868032;29;20049;-83
2021/04/10 05:08:12;;;;;;;115.03;60.60;;;5.60;99.90;;;;;;4872407;29;20076;-81
2021/04/10 05:10:38;;;;;;;109.68;60.53;;;5.50;99.90;;;;;;4859261;29;20052;-82
2021/04/10 05:13:05;;;;;;;119.65;66.00;;;5.50;99.90;;;;;;4889746;29;20052;-83
2021/04/10 05:15:32;;;;;;;136.30;67.22;;;5.70;99.90;;;;;;4889908;29;20080;-82
2021/04/10 05:17:58;;;;;;;129.98;69.35;;;5.80;99.90;;;;;;4889928;29;20057;-82
2021/04/10 05:20:25;;;;;;;129.02;70.63;;;5.70;99.90;;;;;;4890552;29;20155;-82
2021/04/10 05:22:53;;;;;;;127.38;72.07;;;5.60;99.90;;;;;;4890405;29;20070;-82
2021/04/10 05:25:20;;;;;;;141.15;76.90;;;5.60;99.90;;;;;;4886611;29;20076;-82
2021/04/10 05:27:51;;;;;;;132.70;74.43;;;5.60;99.90;;;;;;4891072;29;20049;-82
2021/04/10 05:30:19;;;;;;;131.07;72.80;;;5.50;99.90;;;;;;4860350;29;20152;-82
2021/04/10 05:32:45;;;;;;;136.23;74.80;;;5.50;99.90;;;;;;4875431;29;20053;-82
2021/04/10 05:35:15;;;;;;;135.93;76.07;;;5.50;99.90;;;;;;4882163;29;20040;-82
2021/04/10 05:37:43;;;;;;;127.43;74.75;;;5.60;99.90;;;;;;4887057;29;20060;-82
2021/04/10 05:40:10;;;;;;;133.10;74.45;;;5.60;99.90;;;;;;4875553;29;20049;-81
2021/04/10 05:42:36;;;;;;;117.40;69.28;;;5.60;99.90;;;;;;4875883;29;20113;-80
2021/04/10 05:45:03;;;;;;;128.20;71.32;;;5.60;99.90;;;;;;4894008;29;20057;-80
2021/04/10 05:47:30;;;;;;;124.80;72.72;;;5.50;99.90;;;;;;4908532;29;20123;-81
2021/04/10 05:49:56;;;;;;;125.60;72.07;;;5.60;99.90;;;;;;4912159;29;20061;-81
2021/04/10 05:52:23;;;;;;;122.05;70.45;;;5.70;99.90;;;;;;4865772;29;20052;-81
2021/04/10 05:54:49;;;;;;;124.97;72.65;;;5.80;99.90;;;;;;4880352;29;20048;-81
2021/04/10 05:57:16;;;;;;;139.15;76.55;;;5.80;99.90;;;;;;4880815;29;20058;-81
2021/04/10 05:59:42;;;;;;;128.57;72.93;;;5.80;99.90;;;;;;4896125;29;20111;-81
2021/04/10 06:02:09;;;;;;;132.27;72.93;;;5.80;99.90;;;;;;4875198;29;20524;-81
2021/04/10 06:04:36;;;;;;;138.05;77.40;;;5.80;99.90;;;;;;4900068;29;20450;-81
2021/04/10 06:07:04;;;;;;;130.07;75.93;;;5.70;99.90;;;;;;4859906;29;20451;-81
2021/04/10 06:09:30;;;;;;;138.23;75.38;;;5.60;99.90;;;;;;4896398;29;20503;-81
2021/04/10 06:11:57;;;;;;;140.60;76.07;;;5.60;99.90;;;;;;4861439;29;20056;-81
2021/04/10 06:14:24;;;;;;;141.88;76.78;;;5.70;99.90;;;;;;4878903;29;20083;-81
2021/04/10 06:16:51;;;;;;;133.80;74.55;;;5.70;99.90;;;;;;4891001;29;20139;-80
2021/04/10 06:19:19;;;;;;;138.10;71.28;;;5.70;99.90;;;;;;4867054;29;20048;-82
2021/04/10 06:21:46;;;;;;;135.60;74.15;;;5.70;99.90;;;;;;4876365;29;20052;-80
2021/04/10 06:24:13;;;;;;;132.02;71.68;;;5.60;99.90;;;;;;4893334;29;20496;-80
2021/04/10 06:26:41;;;;;;;131.15;74.75;;;5.60;99.90;;;;;;4885652;29;20761;-81
2021/04/10 06:29:09;;;;;;;132.55;75.75;;;5.60;99.90;;;;;;4876754;29;20053;-81
2021/04/10 06:31:35;;;;;;;137.80;78.00;;;5.70;99.90;;;;;;4883305;29;20083;-81
2021/04/10 06:34:02;;;;;;;131.98;74.40;;;5.80;99.90;;;;;;4891801;29;20076;-80
2021/04/10 06:36:28;;;;;;;129.60;72.50;;;5.90;99.90;;;;;;4875382;29;20052;-82
2021/04/10 06:38:56;;;;;;;134.77;75.05;;;6.00;99.90;;;;;;4872743;29;20161;-81
2021/04/10 06:41:23;;;;;;;132.57;70.35;;;6.00;99.90;;;;;;4861538;29;20056;-81
2021/04/10 06:43:50;;;;;;;130.57;72.30;;;6.00;99.90;;;;;;4874090;29;20084;-79
2021/04/10 06:46:17;;;;;;;130.50;68.68;;;6.10;99.90;;;;;;4858655;29;20401;-81
2021/04/10 06:48:45;;;;;;;116.60;63.30;;;6.20;99.90;;;;;;4881138;29;20045;-79
2021/04/10 06:51:14;;;;;;;114.38;63.75;;;6.20;99.90;;;;;;4890852;29;20075;-80
2021/04/10 06:53:45;;;;;;;121.28;66.03;;;6.20;99.90;;;;;;4886925;29;20120;-80
2021/04/10 06:56:31;;;;;;;115.15;66.15;;;6.50;99.90;;;;;;4906639;29;20147;-81
2021/04/10 06:59:32;;;;;;;116.07;66.50;;;6.60;99.90;;;;;;4893363;29;20135;-80
2021/04/10 07:01:59;;;;;;;115.25;67.30;;;6.80;99.90;;;;;;4869288;29;20491;-81
2021/04/10 07:04:26;;;;;;;116.70;67.30;;;6.90;99.90;;;;;;4874941;29;20080;-80
2021/04/10 07:06:53;;;;;;;113.25;67.55;;;6.70;99.90;;;;;;4857361;29;20065;-80
2021/04/10 07:09:20;;;;;;;109.13;67.65;;;6.80;99.90;;;;;;4896870;29;20140;-81
2021/04/10 07:11:47;;;;;;;118.20;68.95;;;6.80;99.90;;;;;;4888357;29;20045;-82
2021/04/10 07:14:13;;;;;;;110.18;64.25;;;6.80;99.90;;;;;;4889649;29;20053;-80
2021/04/10 07:16:40;;;;;;;122.30;71.65;;;6.60;99.90;;;;;;4872794;29;20051;-79
2021/04/10 07:19:12;;;;;;;108.55;64.78;;;6.50;99.90;;;;;;4887602;29;20522;-81
2021/04/10 07:21:39;;;;;;;122.75;70.05;;;6.50;99.90;;;;;;4890694;29;20516;-82
2021/04/10 07:24:06;;;;;;;107.15;63.25;;;6.60;99.90;;;;;;4893071;29;20060;-81
2021/04/10 07:26:55;;;;;;;116.43;67.15;;;6.80;99.90;;;;;;4884283;29;20143;-80
2021/04/10 07:29:41;;;;;;;97.00;60.45;;;6.70;99.90;;;;;;4876449;29;20063;-82
2021/04/10 07:32:34;;;;;;;105.75;61.00;;;6.50;99.90;;;;;;4875356;29;20045;-79
2021/04/10 07:35:05;;;;;;;98.10;62.80;;;6.60;99.90;;;;;;4889641;29;20064;-79
2021/04/10 07:37:35;;;;;;;102.28;63.20;;;6.50;99.90;;;;;;4890841;29;20045;-79
2021/04/10 07:40:17;;;;;;;98.20;59.72;;;6.60;99.90;;;;;;4885164;29;20045;-80
2021/04/10 07:42:46;;;;;;;100.43;61.58;;;6.70;99.90;;;;;;4886447;29;20487;-81
2021/04/10 07:45:32;;;;;;;95.43;60.55;;;6.70;99.90;;;;;;4870896;29;20049;-79
2021/04/10 07:48:04;;;;;;;110.88;65.20;;;6.60;99.90;;;;;;4884975;29;20068;-79
2021/04/10 07:50:33;;;;;;;115.22;68.13;;;6.60;99.90;;;;;;4879394;29;20061;-79
2021/04/10 07:53:23;;;;;;;104.93;64.03;;;6.80;99.90;;;;;;4856116;29;20056;-79
2021/04/10 07:55:50;;;;;;;106.05;66.05;;;7.10;99.90;;;;;;4902165;29;20556;-81
2021/04/10 07:58:35;;;;;;;98.50;62.72;;;7.30;99.90;;;;;;4874730;29;20465;-79
2021/04/10 08:01:10;;;;;;;88.20;55.55;;;7.30;99.90;;;;;;4870840;29;20055;-79
2021/04/10 08:03:40;;;;;;;;;;;7.20;99.90;;;;;;4883601;29;20057;-80
2021/04/10 08:06:09;;;;;;;94.97;55.53;;;7.20;99.90;;;;;;4898125;29;19971;-81
2021/04/10 08:08:58;;;;;;;86.35;54.15;;;7.00;99.90;;;;;;4868634;29;20097;-73
2021/04/10 08:11:31;;;;;;;94.60;56.10;;;7.00;99.90;;;;;;4880205;29;20049;-80
2021/04/10 08:14:01;;;;;;;97.82;59.10;;;6.60;99.90;;;;;;4874461;29;20052;-79
2021/04/10 08:16:28;;;;;;;96.25;58.25;;;6.70;99.90;;;;;;4878916;29;20045;-79
2021/04/10 08:18:57;;;;;;;92.60;56.03;;;6.80;99.90;;;;;;4884036;29;20057;-78
2021/04/10 08:21:30;;;;;;;94.82;56.95;;;6.90;99.90;;;;;;4885563;29;20120;-80
2021/04/10 08:24:01;;;;;;;99.90;59.05;;;6.70;99.90;;;;;;4873999;29;20064;-78
2021/04/10 08:26:29;;;;;;;103.15;62.13;;;6.60;99.90;;;;;;4890518;29;20041;-79
2021/04/10 08:28:56;;;;;;;106.28;63.20;;;6.70;99.90;;;;;;4852270;29;20760;-79
2021/04/10 08:31:23;;;;;;;107.07;61.15;;;6.60;99.90;;;;;;4871726;29;20152;-79
2021/04/10 08:33:49;;;;;;;102.13;61.58;;;6.70;99.90;;;;;;4888844;29;20073;-81
2021/04/10 08:36:17;;;;;;;106.82;61.90;;;6.60;99.90;;;;;;4872954;29;20706;-79
2021/04/10 08:38:44;;;;;;;101.82;59.90;;;6.60;99.90;;;;;;4904665;29;20540;-79
2021/04/10 08:41:12;;;;;;;106.50;62.33;;;6.70;99.90;;;;;;4871014;29;20053;-79
2021/04/10 08:43:46;;;;;;;130.10;74.38;;;6.60;99.90;;;;;;4882671;29;20122;-79
2021/04/10 08:46:16;;;;;;;110.95;61.50;;;6.60;99.90;;;;;;4872805;29;20049;-79
2021/04/10 08:48:44;;;;;;;110.70;62.53;;;6.50;99.90;;;;;;4858172;29;20048;-80
2021/04/10 08:51:14;;;;;;;112.93;67.45;;;6.40;99.90;;;;;;4902850;29;20060;-79
2021/04/10 08:53:47;;;;;;;118.50;68.65;;;6.30;99.90;;;;;;4883478;29;20135;-79
2021/04/10 08:56:18;;;;;;;146.43;79.32;;;6.30;99.90;;;;;;4872064;29;20112;-79
2021/04/10 08:58:45;;;;;;;143.60;77.45;;;6.30;99.90;;;;;;4842286;29;20420;-79
2021/04/10 09:01:20;;;;;;;126.78;69.55;;;6.20;99.90;;;;;;4862703;29;20063;-78
2021/04/10 09:03:49;;;;;;;139.52;78.10;;;6.20;99.90;;;;;;4888389;29;20048;-79
2021/04/10 09:06:37;;;;;;;133.43;76.80;;;6.20;99.90;;;;;;4876454;29;20104;-80
2021/04/10 09:09:17;;;;;;;126.47;69.50;;;6.30;99.90;;;;;;4876944;29;20049;-81
2021/04/10 09:11:45;;;;;;;124.90;68.15;;;6.40;99.90;;;;;;4890299;29;20056;-81
2021/04/10 09:14:14;;;;;;;125.38;70.80;;;6.50;99.90;;;;;;4861188;29;20500;-79
2021/04/10 09:16:44;;;;;;;110.55;66.90;;;6.70;99.90;;;;;;4860991;29;20049;-80
2021/04/10 09:19:11;;;;;;;188.95;106.10;;;6.70;99.90;;;;;;4875050;29;20112;-79
2021/04/10 09:21:39;;;;;;;121.90;72.18;;;6.80;99.90;;;;;;4896410;29;20146;-80
2021/04/10 09:24:36;;;;;;;118.63;67.60;;;6.70;99.90;;;;;;4878139;29;20116;-80
2021/04/10 09:27:25;;;;;;;101.90;59.90;;;6.80;99.90;;;;;;4875183;29;20049;-79
2021/04/10 09:29:54;;;;;;;110.68;66.05;;;6.70;99.90;;;;;;4894674;29;20044;-80
2021/04/10 09:32:40;;;;;;;112.18;67.00;;;6.70;99.90;;;;;;4863622;29;20072;-79
2021/04/10 09:35:12;;;;;;;100.95;61.53;;;6.90;99.90;;;;;;4880577;29;20073;-79
2021/04/10 09:37:39;;;;;;;103.88;63.03;;;6.90;99.90;;;;;;4863439;29;20045;-80
2021/04/10 09:40:08;;;;;;;105.47;62.88;;;7.00;99.90;;;;;;4885569;29;20527;-81
2021/04/10 09:42:34;;;;;;;102.88;61.03;;;7.00;99.90;;;;;;4906881;29;20491;-79
2021/04/10 09:45:04;;;;;;;96.65;59.28;;;7.00;99.90;;;;;;4904330;29;20057;-78
2021/04/10 09:47:56;;;;;;;91.65;55.97;;;6.90;99.90;;;;;;4909009;29;20055;-80
2021/04/10 09:50:27;;;;;;;88.10;55.90;;;7.00;99.90;;;;;;4875269;29;20049;-80
2021/04/10 09:53:08;;;;;;;89.20;55.92;;;7.00;99.90;;;;;;4878740;29;20464;-81
2021/04/10 09:55:38;;;;;;;84.30;54.80;;;7.10;99.90;;;;;;4877276;29;20049;-82
2021/04/10 09:58:09;;;;;;;92.35;55.28;;;7.00;99.90;;;;;;4875780;29;20115;-80
2021/04/10 10:00:39;;;;;;;85.00;52.95;;;7.20;99.90;;;;;;4887985;29;20053;-79
2021/04/10 10:03:07;;;;;;;82.50;52.35;;;7.30;99.90;;;;;;4861615;29;20057;-78
2021/04/10 10:05:45;;;;;;;86.95;54.28;;;7.10;99.90;;;;;;4891568;29;20104;-80
2021/04/10 10:08:17;;;;;;;81.68;52.80;;;7.20;99.90;;;;;;4903149;29;20048;-80
2021/04/10 10:10:49;;;;;;;87.15;55.28;;;7.40;99.90;;;;;;4869499;29;20075;-80
2021/04/10 10:13:17;;;;;;;84.93;54.42;;;7.50;99.90;;;;;;4870651;29;20052;-76
2021/04/10 10:15:45;;;;;;;77.47;52.88;;;7.40;99.90;;;;;;4871392;29;20207;-79
2021/04/10 10:18:20;;;;;;;77.82;51.85;;;7.60;99.90;;;;;;4889387;29;20041;-80
2021/04/10 10:20:53;;;;;;;;;;;7.80;99.90;;;;;;4920563;29;20039;-79
2021/04/10 10:23:20;;;;;;;82.97;50.95;;;7.70;99.90;;;;;;4894333;29;19927;-79
2021/04/10 10:25:46;;;;;;;76.18;51.10;;;7.60;99.90;;;;;;4932346;29;20060;-79
2021/04/10 10:28:17;;;;;;;73.50;47.63;;;7.70;99.90;;;;;;4892680;29;20029;-78
2021/04/10 10:30:44;;;;;;;81.72;52.22;;;7.90;99.90;;;;;;4906638;28;20053;-79
2021/04/10 10:33:11;;;;;;;75.28;51.70;;;7.90;99.90;;;;;;4914819;29;20077;-78
2021/04/10 10:35:49;;;;;;;66.82;46.70;;;8.00;99.90;;;;;;4894763;29;20100;-79
2021/04/10 10:38:16;;;;;;;66.20;44.08;;;8.00;99.90;;;;;;4905717;29;20032;-79
2021/04/10 10:40:52;;;;;;;60.63;44.38;;;8.10;99.90;;;;;;4907644;29;20049;-79
2021/04/10 10:43:19;;;;;;;56.25;40.80;;;8.30;99.90;;;;;;4884920;29;20033;-79
2021/04/10 10:45:46;;;;;;;55.47;40.35;;;8.40;99.90;;;;;;4914840;29;20216;-78
2021/04/10 10:48:20;;;;;;;52.10;38.63;;;8.50;99.90;;;;;;4899424;29;20037;-78
2021/04/10 10:50:47;;;;;;;49.88;38.05;;;8.60;99.90;;;;;;4898785;29;20100;-79
2021/04/10 10:53:17;;;;;;;49.22;37.45;;;8.80;99.90;;;;;;4900393;29;20105;-79
2021/04/10 10:56:03;;;;;;;52.22;37.85;;;8.80;99.90;;;;;;4899256;29;20052;-78
2021/04/10 10:58:32;;;;;;;52.47;38.78;;;8.70;99.90;;;;;;4914771;29;20104;-78
2021/04/10 11:01:00;;;;;;;52.15;39.50;;;8.90;99.90;;;;;;4910134;29;20033;-80
2021/04/10 11:03:27;;;;;;;55.58;39.65;;;9.00;99.90;;;;;;4890937;29;20453;-79
2021/04/10 11:05:54;;;;;;;54.80;42.17;;;9.00;99.90;;;;;;4892585;29;20064;-80
2021/04/10 11:08:23;;;;;;;53.22;40.65;;;9.00;99.90;;;;;;4887136;29;20099;-79
2021/04/10 11:10:53;;;;;;;54.70;42.03;;;9.20;99.90;;;;;;4888875;29;20068;-79
2021/04/10 11:13:20;;;;;;;47.55;34.67;;;9.20;99.90;;;;;;4886633;29;20049;-79
2021/04/10 11:15:48;;;;;;;44.80;35.67;;;9.30;99.90;;;;;;4876359;29;20665;-80
2021/04/10 11:18:32;;;;;;;42.08;33.40;;;9.10;99.90;;;;;;4872843;29;20051;-79
2021/04/10 11:21:11;;;;;;;45.40;34.65;;;9.10;99.90;;;;;;4872388;29;20056;-79
2021/04/10 11:24:00;;;;;;;45.80;36.42;;;8.90;99.90;;;;;;4883686;29;20398;-79
2021/04/10 11:26:40;;;;;;;45.90;37.65;;;9.00;99.90;;;;;;4890056;29;20500;-80
2021/04/10 11:29:19;;;;;;;51.60;41.58;;;9.10;99.90;;;;;;4891966;29;20436;-79
2021/04/10 11:32:17;;;;;;;49.20;36.10;;;9.10;99.90;;;;;;4896613;29;20531;-79
2021/04/10 11:34:46;;;;;;;50.03;34.65;;;9.00;99.90;;;;;;4902634;29;20055;-80
2021/04/10 11:37:17;;;;;;;48.03;38.90;;;9.10;99.90;;;;;;4866200;29;20084;-78
2021/04/10 11:40:30;;;;;;;45.30;36.38;;;9.30;99.90;;;;;;4864829;29;20053;-79
2021/04/10 11:43:12;;;;;;;44.25;35.97;;;9.60;99.90;;;;;;4892736;29;20053;-78
2021/04/10 11:45:44;;;;;;;46.30;38.42;;;9.60;99.90;;;;;;4877954;29;20099;-78
2021/04/10 11:48:16;;;;;;;43.88;36.05;;;9.50;99.90;;;;;;4907918;29;20084;-79
2021/04/10 11:50:54;;;;;;;43.05;37.83;;;9.70;99.90;;;;;;4876843;29;20051;-78
2021/04/10 11:53:26;;;;;;;44.30;37.08;;;9.60;99.90;;;;;;4874084;29;20176;-78
2021/04/10 11:55:57;;;;;;;47.90;39.20;;;9.50;99.90;;;;;;4879861;29;20083;-80
2021/04/10 11:58:33;;;;;;;50.30;40.63;;;9.20;99.90;;;;;;4890369;29;20045;-78
2021/04/10 12:01:11;;;;;;;46.03;38.20;;;9.20;99.90;;;;;;4905662;29;20323;-79
2021/04/10 12:03:51;;;;;;;46.28;39.55;;;9.40;99.90;;;;;;4870474;29;20268;-80
2021/04/10 12:06:36;;;;;;;45.85;39.97;;;9.50;99.90;;;;;;4890253;29;20056;-80
2021/04/10 12:09:11;;;;;;;47.55;39.13;;;9.50;99.90;;;;;;4909109;29;20074;-79
2021/04/10 12:11:42;;;;;;;47.85;39.42;;;9.60;99.90;;;;;;4879829;29;20045;-79
2021/04/10 12:14:11;;;;;;;47.47;39.10;;;9.30;99.90;;;;;;4887706;29;20052;-79
2021/04/10 12:16:39;;;;;;;47.10;41.47;;;9.10;99.90;;;;;;4891305;29;20140;-78
2021/04/10 12:19:07;;;;;;;48.70;40.17;;;9.10;99.90;;;;;;4881735;29;20053;-80
2021/04/10 12:21:33;;;;;;;47.55;40.55;;;9.30;99.90;;;;;;4875478;29;20080;-79
2021/04/10 12:24:00;;;;;;;48.45;40.30;;;9.20;99.90;;;;;;4890045;29;20057;-80
2021/04/10 12:26:27;;;;;;;44.83;37.88;;;9.00;99.90;;;;;;4886514;29;20048;-79
2021/04/10 12:28:54;;;;;;;56.88;46.22;;;9.10;99.90;;;;;;4882786;29;20087;-80
2021/04/10 12:31:22;;;;;;;54.28;43.80;;;9.30;99.90;;;;;;4875323;29;20060;-79
2021/04/10 12:33:49;;;;;;;53.60;42.38;;;9.30;99.90;;;;;;4889808;29;20068;-79
2021/04/10 12:36:17;;;;;;;55.75;42.85;;;9.40;99.90;;;;;;4882172;29;20068;-78
2021/04/10 12:38:43;;;;;;;50.88;42.15;;;9.20;99.90;;;;;;4876176;29;20044;-80
2021/04/10 12:41:10;;;;;;;56.85;43.42;;;9.10;99.90;;;;;;4903906;29;20096;-80
2021/04/10 12:43:37;;;;;;;46.60;39.70;;;9.30;99.90;;;;;;4871642;29;20410;-80
2021/04/10 12:46:04;;;;;;;53.20;41.70;;;9.20;99.90;;;;;;4872896;29;20097;-79
2021/04/10 12:48:31;;;;;;;52.55;41.25;;;9.30;99.90;;;;;;4892333;29;20583;-80
2021/04/10 12:50:57;;;;;;;49.28;40.97;;;9.30;99.90;;;;;;4868933;29;20432;-79
2021/04/10 12:53:24;;;;;;;52.28;41.33;;;9.10;99.90;;;;;;4905816;29;20052;-80